Hot Springs Village, Arkansas
Current Conditions -  °F | °C
As of 4:53 PM on Tuesday 21 Oct 2014 (Local Time) from KHOT Reporting Station
Clear Clear  
Wind Chill: 77°   Ceiling: Unl
Heat Index: 78°   Visibility: 10mi
Dew Point: 55°   Wind: 5mph
Humidity: 46%   Direction: 290°WNW
Pressure: 30.04"   Gusts: NA
Location:  34.66°N, 93.05°W
Report Text: KHOT 212153Z AUTO 29004KT 10SM CLR 25/13 A3004 RMK AO2 SLP170 T02500128
Loading
Personal Weather Stations






























Interactive Weather Map
Tropical Storm Tracking
New forecast layout! Learn more

10-Day Weather Forecast

Advertisements
Track Severe Weather on mobile